createdAt,value
2017-11-19T00:00:51.120Z,4.10
2017-11-19T00:01:53.637Z,4.10
2017-11-19T00:02:56.119Z,4.00
2017-11-19T00:03:58.636Z,4.10
2017-11-19T00:05:01.108Z,4.10
2017-11-19T00:06:03.588Z,4.10
2017-11-19T00:07:06.056Z,4.10
2017-11-19T00:08:08.951Z,4.10
2017-11-19T00:09:11.476Z,4.10
2017-11-19T00:10:13.970Z,4.20
2017-11-19T00:11:16.450Z,4.10
2017-11-19T00:12:19.711Z,4.10
2017-11-19T00:13:22.294Z,4.10
2017-11-19T00:14:24.770Z,4.20
2017-11-19T00:15:27.256Z,4.20
2017-11-19T00:16:29.766Z,4.20
2017-11-19T00:17:32.328Z,4.20
2017-11-19T00:18:35.574Z,4.20
2017-11-19T00:19:38.840Z,4.20
2017-11-19T00:20:41.316Z,4.20
2017-11-19T00:21:43.841Z,4.20
2017-11-19T00:22:46.364Z,4.10
2017-11-19T00:23:49.599Z,4.10
2017-11-19T00:24:52.080Z,4.10
2017-11-19T00:25:54.553Z,4.10
2017-11-19T00:26:57.020Z,4.10
2017-11-19T00:27:59.529Z,4.10
2017-11-19T00:29:02.763Z,4.10
2017-11-19T00:30:05.278Z,4.10
2017-11-19T00:31:07.761Z,4.10
2017-11-19T00:32:10.234Z,4.10
2017-11-19T00:33:12.757Z,4.10
2017-11-19T00:34:15.243Z,4.10
2017-11-19T00:35:17.891Z,4.10
2017-11-19T00:36:20.361Z,4.10
2017-11-19T00:37:23.611Z,4.10
2017-11-19T00:38:26.067Z,4.10
2017-11-19T00:39:28.549Z,4.00
2017-11-19T00:40:31.057Z,4.10
2017-11-19T00:41:35.061Z,4.00
2017-11-19T00:42:37.548Z,4.00
2017-11-19T00:43:40.801Z,4.00
2017-11-19T00:44:44.031Z,4.00
2017-11-19T00:45:47.325Z,3.90
2017-11-19T00:46:49.818Z,3.90
2017-11-19T00:47:53.094Z,3.90
2017-11-19T00:48:55.593Z,3.90
2017-11-19T00:49:58.079Z,3.90
2017-11-19T00:51:00.558Z,3.90
2017-11-19T00:52:03.035Z,3.90
2017-11-19T00:53:05.500Z,3.80
2017-11-19T00:54:07.990Z,3.80
2017-11-19T00:55:10.460Z,3.80
2017-11-19T00:56:12.924Z,3.80
2017-11-19T00:57:20.270Z,3.70
2017-11-19T00:58:22.833Z,3.80
2017-11-19T00:59:25.352Z,3.70
2017-11-19T01:00:27.926Z,3.70
2017-11-19T01:01:30.384Z,3.70
2017-11-19T01:02:33.644Z,3.70
2017-11-19T01:03:36.168Z,3.70
2017-11-19T01:04:38.645Z,3.70
2017-11-19T01:05:41.197Z,3.70
2017-11-19T01:06:44.433Z,3.60
2017-11-19T01:07:46.900Z,3.60
2017-11-19T01:08:49.365Z,3.60
2017-11-19T01:09:51.827Z,3.60
2017-11-19T01:10:55.144Z,3.50
2017-11-19T01:11:57.580Z,3.50
2017-11-19T01:13:01.372Z,3.50
2017-11-19T01:14:03.869Z,3.50
2017-11-19T01:15:07.160Z,3.60
2017-11-19T01:16:09.633Z,3.50
2017-11-19T01:17:12.867Z,3.50
2017-11-19T01:18:15.330Z,3.50
2017-11-19T01:19:17.860Z,3.60
2017-11-19T01:20:20.471Z,3.60
2017-11-19T01:21:22.957Z,3.50
2017-11-19T01:22:25.415Z,3.50
2017-11-19T01:23:28.650Z,3.50
2017-11-19T01:24:31.908Z,3.50
2017-11-19T01:25:34.588Z,3.40
2017-11-19T01:26:37.046Z,3.40
2017-11-19T01:27:40.301Z,3.40
2017-11-19T01:28:42.808Z,3.40
2017-11-19T01:29:45.359Z,3.40
2017-11-19T01:30:47.857Z,3.30
2017-11-19T01:31:51.101Z,3.30
2017-11-19T01:32:53.557Z,3.30
2017-11-19T01:33:56.019Z,3.30
2017-11-19T01:34:58.612Z,3.30
2017-11-19T01:36:01.080Z,3.20
2017-11-19T01:37:03.556Z,3.20
2017-11-19T01:38:06.094Z,3.20
2017-11-19T01:39:08.551Z,3.20
2017-11-19T01:40:11.039Z,3.20
2017-11-19T01:41:13.502Z,3.20
2017-11-19T01:42:15.957Z,3.20
2017-11-19T01:43:19.209Z,3.10
2017-11-19T01:44:22.580Z,3.10
2017-11-19T01:45:25.089Z,3.10
2017-11-19T01:46:27.549Z,3.10
2017-11-19T01:47:30.054Z,3.10
2017-11-19T01:48:32.565Z,3.10
2017-11-19T01:49:35.037Z,3.10
2017-11-19T01:50:37.496Z,3.10
2017-11-19T01:51:40.790Z,3.10
2017-11-19T01:52:43.290Z,3.00
2017-11-19T01:53:45.916Z,3.10
2017-11-19T01:54:48.380Z,3.10
2017-11-19T01:55:50.846Z,3.10
2017-11-19T01:56:54.130Z,3.10
2017-11-19T01:57:56.596Z,3.10
2017-11-19T01:58:59.876Z,3.20
2017-11-19T02:00:02.344Z,3.20
2017-11-19T02:01:04.821Z,3.20
2017-11-19T02:02:07.298Z,3.30
2017-11-19T02:03:09.786Z,3.30
2017-11-19T02:04:12.281Z,3.20
2017-11-19T02:05:15.510Z,3.30
2017-11-19T02:06:17.981Z,3.30
2017-11-19T02:07:20.469Z,3.30
2017-11-19T02:08:23.708Z,3.30
2017-11-19T02:09:26.172Z,3.30
2017-11-19T02:10:28.636Z,3.40
2017-11-19T02:11:31.175Z,3.40
2017-11-19T02:12:33.636Z,3.40
2017-11-19T02:13:36.117Z,3.40
2017-11-19T02:14:39.352Z,3.40
2017-11-19T02:15:41.833Z,3.40
2017-11-19T02:16:44.338Z,3.50
2017-11-19T02:17:47.591Z,3.50
2017-11-19T02:18:50.104Z,3.50
2017-11-19T02:19:54.160Z,3.50
2017-11-19T02:20:56.672Z,3.50
2017-11-19T02:21:59.152Z,3.50
2017-11-19T02:23:01.730Z,3.50
2017-11-19T02:24:05.008Z,3.50
2017-11-19T02:25:07.528Z,3.50
2017-11-19T02:26:10.003Z,3.50
2017-11-19T02:27:12.485Z,3.50
2017-11-19T02:28:14.967Z,3.50
2017-11-19T02:29:17.463Z,3.50
2017-11-19T02:30:19.965Z,3.50
2017-11-19T02:31:22.462Z,3.50
2017-11-19T02:32:25.738Z,3.50
2017-11-19T02:33:28.208Z,3.50
2017-11-19T02:34:31.464Z,3.50
2017-11-19T02:35:34.021Z,3.50
2017-11-19T02:36:36.567Z,3.50
2017-11-19T02:37:39.042Z,3.50
2017-11-19T02:38:42.289Z,3.60
2017-11-19T02:39:45.536Z,3.50
2017-11-19T02:40:48.832Z,3.60
2017-11-19T02:41:51.412Z,3.60
2017-11-19T02:42:53.894Z,3.60
2017-11-19T02:43:56.438Z,3.60
2017-11-19T02:44:58.912Z,3.60
2017-11-19T02:46:01.575Z,3.60
2017-11-19T02:47:04.057Z,3.60
2017-11-19T02:48:06.570Z,3.60
2017-11-19T02:49:09.049Z,3.60
2017-11-19T02:50:11.537Z,3.60
2017-11-19T02:51:14.008Z,3.60
2017-11-19T02:52:16.585Z,3.60
2017-11-19T02:53:19.066Z,3.60
2017-11-19T02:54:22.324Z,3.60
2017-11-19T02:55:25.562Z,3.60
2017-11-19T02:56:28.871Z,3.60
2017-11-19T02:57:31.395Z,3.60
2017-11-19T02:58:33.875Z,3.70
2017-11-19T02:59:36.358Z,3.70
2017-11-19T03:00:38.821Z,3.60
2017-11-19T03:01:41.322Z,3.60
2017-11-19T03:02:43.780Z,3.60
2017-11-19T03:03:46.982Z,3.70
2017-11-19T03:04:49.469Z,3.70
2017-11-19T03:05:51.956Z,3.70
2017-11-19T03:06:55.202Z,3.70
2017-11-19T03:07:57.837Z,3.70
2017-11-19T03:09:00.300Z,3.70
2017-11-19T03:10:02.768Z,3.70
2017-11-19T03:11:05.991Z,3.70
2017-11-19T03:12:08.456Z,3.70
2017-11-19T03:13:10.976Z,3.70
2017-11-19T03:14:13.441Z,3.70
2017-11-19T03:15:15.949Z,3.70
2017-11-19T03:16:18.584Z,3.70
2017-11-19T03:17:21.052Z,3.60
2017-11-19T03:18:24.446Z,3.70
2017-11-19T03:19:26.900Z,3.70
2017-11-19T03:20:29.401Z,3.70
2017-11-19T03:21:31.888Z,3.70
2017-11-19T03:22:35.148Z,3.60
2017-11-19T03:23:37.714Z,3.60
2017-11-19T03:24:40.176Z,3.60
2017-11-19T03:25:43.431Z,3.60
2017-11-19T03:26:46.656Z,3.60
2017-11-19T03:27:49.934Z,3.60
2017-11-19T03:28:52.433Z,3.60
2017-11-19T03:29:55.774Z,3.70
2017-11-19T03:30:59.009Z,3.70
2017-11-19T03:32:02.265Z,3.70
2017-11-19T03:33:05.505Z,3.70
2017-11-19T03:34:08.758Z,3.70
2017-11-19T03:35:11.285Z,3.70
2017-11-19T03:36:13.744Z,3.70
2017-11-19T03:37:16.237Z,3.70
2017-11-19T03:38:18.936Z,3.70
2017-11-19T03:39:21.410Z,3.70
2017-11-19T03:40:23.864Z,3.70
2017-11-19T03:41:26.365Z,3.70
2017-11-19T03:42:28.853Z,3.70
2017-11-19T03:43:32.088Z,3.70
2017-11-19T03:44:35.307Z,3.70
2017-11-19T03:45:37.793Z,3.70
2017-11-19T03:46:40.305Z,3.70
2017-11-19T03:47:42.804Z,3.70
2017-11-19T03:48:46.046Z,3.70
2017-11-19T03:49:49.296Z,3.70
2017-11-19T03:50:52.557Z,3.70
2017-11-19T03:51:55.036Z,3.70
2017-11-19T03:52:57.562Z,3.70
2017-11-19T03:54:00.050Z,3.70
2017-11-19T03:55:02.529Z,3.70
2017-11-19T03:56:05.011Z,3.70
2017-11-19T03:57:07.490Z,3.70
2017-11-19T03:58:10.749Z,3.60
2017-11-19T03:59:13.224Z,3.60
2017-11-19T04:00:15.692Z,3.60
2017-11-19T04:01:18.241Z,3.60
2017-11-19T04:02:20.775Z,3.60
2017-11-19T04:03:23.237Z,3.60
2017-11-19T04:04:25.707Z,3.60
2017-11-19T04:05:28.219Z,3.60
2017-11-19T04:06:31.466Z,3.50
2017-11-19T04:07:34.016Z,3.50
2017-11-19T04:08:36.480Z,3.50
2017-11-19T04:09:38.957Z,3.50
2017-11-19T04:10:41.471Z,3.50
2017-11-19T04:11:44.035Z,3.50
2017-11-19T04:12:46.492Z,3.50
2017-11-19T04:13:49.724Z,3.50
2017-11-19T04:14:52.189Z,3.50
2017-11-19T04:15:54.678Z,3.50
2017-11-19T04:16:57.965Z,3.50
2017-11-19T04:18:00.429Z,3.50
2017-11-19T04:19:02.916Z,3.50
2017-11-19T04:20:05.386Z,3.50
2017-11-19T04:21:07.898Z,3.50
2017-11-19T04:22:10.495Z,3.40
2017-11-19T04:23:12.961Z,3.40
2017-11-19T04:24:16.956Z,3.40
2017-11-19T04:25:20.339Z,3.40
2017-11-19T04:26:22.807Z,3.40
2017-11-19T04:27:25.268Z,3.30
2017-11-19T04:28:27.794Z,3.30
2017-11-19T04:29:30.256Z,3.30
2017-11-19T04:30:32.760Z,3.30
2017-11-19T04:31:35.277Z,3.30
2017-11-19T04:32:37.784Z,3.30
2017-11-19T04:33:40.252Z,3.30
2017-11-19T04:34:42.784Z,3.30
2017-11-19T04:35:45.244Z,3.30
2017-11-19T04:36:48.475Z,3.30
2017-11-19T04:37:51.037Z,3.30
2017-11-19T04:38:53.506Z,3.30
2017-11-19T04:39:55.964Z,3.30
2017-11-19T04:40:59.230Z,3.20
2017-11-19T04:42:01.696Z,3.20
2017-11-19T04:43:04.185Z,3.20
2017-11-19T04:44:06.649Z,3.20
2017-11-19T04:45:09.254Z,3.20
2017-11-19T04:46:11.724Z,3.20
2017-11-19T04:47:14.172Z,3.10
2017-11-19T04:48:16.680Z,3.10
2017-11-19T04:49:19.964Z,3.10
2017-11-19T04:50:22.440Z,3.10
2017-11-19T04:51:24.961Z,3.10
2017-11-19T04:52:27.531Z,3.10
2017-11-19T04:53:30.034Z,3.10
2017-11-19T04:54:32.588Z,3.20
2017-11-19T04:55:35.067Z,3.20
2017-11-19T04:56:37.547Z,3.20
2017-11-19T04:57:40.349Z,3.20
2017-11-19T04:58:42.860Z,3.20
2017-11-19T04:59:46.329Z,3.20
2017-11-19T05:00:48.811Z,3.20
2017-11-19T05:01:51.405Z,3.20
2017-11-19T05:02:53.893Z,3.20
2017-11-19T05:03:57.129Z,3.20
2017-11-19T05:05:00.493Z,3.20
2017-11-19T05:06:02.982Z,3.20
2017-11-19T05:07:05.444Z,3.20
2017-11-19T05:08:07.976Z,3.20
2017-11-19T05:09:10.498Z,3.20
2017-11-19T05:10:12.993Z,3.20
2017-11-19T05:11:16.340Z,3.20
2017-11-19T05:12:19.633Z,3.20
2017-11-19T05:13:22.096Z,3.20
2017-11-19T05:14:24.567Z,3.20
2017-11-19T05:15:27.079Z,3.20
2017-11-19T05:16:29.704Z,3.20
2017-11-19T05:17:32.956Z,3.10
2017-11-19T05:18:35.421Z,3.10
2017-11-19T05:19:37.897Z,3.20
2017-11-19T05:20:40.376Z,3.20
2017-11-19T05:21:42.881Z,3.20
2017-11-19T05:22:45.370Z,3.20
2017-11-19T05:23:48.593Z,3.20
2017-11-19T05:24:52.897Z,3.20
2017-11-19T05:25:55.381Z,3.20
2017-11-19T05:26:58.617Z,3.20
2017-11-19T05:28:02.600Z,3.20
2017-11-19T05:29:05.823Z,3.20
2017-11-19T05:30:08.291Z,3.20
2017-11-19T05:31:10.805Z,3.20
2017-11-19T05:32:13.376Z,3.20
2017-11-19T05:33:15.836Z,3.20
2017-11-19T05:34:19.067Z,3.20
2017-11-19T05:35:21.539Z,3.20
2017-11-19T05:36:24.045Z,3.20
2017-11-19T05:37:26.506Z,3.20
2017-11-19T05:38:29.008Z,3.20
2017-11-19T05:39:31.482Z,3.20
2017-11-19T05:40:34.057Z,3.20
2017-11-19T05:41:36.623Z,3.20
2017-11-19T05:42:39.908Z,3.20
2017-11-19T05:43:43.176Z,3.20
2017-11-19T05:44:45.650Z,3.10
2017-11-19T05:45:48.109Z,3.20
2017-11-19T05:46:50.579Z,3.20
2017-11-19T05:47:53.043Z,3.20
2017-11-19T05:48:56.768Z,3.20
2017-11-19T05:49:59.255Z,3.20
2017-11-19T05:51:01.736Z,3.20
2017-11-19T05:52:04.989Z,3.10
2017-11-19T05:53:08.220Z,3.10
2017-11-19T05:54:11.514Z,3.10
2017-11-19T05:55:13.980Z,3.10
2017-11-19T05:56:16.555Z,3.10
2017-11-19T05:57:19.020Z,3.10
2017-11-19T05:58:21.487Z,3.10
2017-11-19T05:59:23.988Z,3.10
2017-11-19T06:00:26.464Z,3.10
2017-11-19T06:01:28.928Z,3.10
2017-11-19T06:02:31.432Z,3.20
2017-11-19T06:03:33.900Z,3.10
2017-11-19T06:04:37.178Z,3.20
2017-11-19T06:05:39.682Z,3.20
2017-11-19T06:06:42.929Z,3.20
2017-11-19T06:07:45.453Z,3.20
2017-11-19T06:08:47.923Z,3.20
2017-11-19T06:09:50.423Z,3.20
2017-11-19T06:10:52.931Z,3.30
2017-11-19T06:11:55.401Z,3.30
2017-11-19T06:12:58.693Z,3.30
2017-11-19T06:14:01.258Z,3.30
2017-11-19T06:15:03.766Z,3.30
2017-11-19T06:16:06.241Z,3.30
2017-11-19T06:17:08.715Z,3.40
2017-11-19T06:18:11.243Z,3.40
2017-11-19T06:19:13.703Z,3.40
2017-11-19T06:20:16.180Z,3.40
2017-11-19T06:21:18.670Z,3.50
2017-11-19T06:22:21.132Z,3.50
2017-11-19T06:23:23.604Z,3.50
2017-11-19T06:24:27.704Z,3.40
2017-11-19T06:25:30.195Z,3.40
2017-11-19T06:26:32.683Z,3.50
2017-11-19T06:27:35.659Z,3.40
2017-11-19T06:28:38.181Z,3.40
2017-11-19T06:29:40.901Z,3.50
2017-11-19T06:30:43.386Z,3.50
2017-11-19T06:31:45.855Z,3.50
2017-11-19T06:32:48.320Z,3.50
2017-11-19T06:33:50.802Z,3.50
2017-11-19T06:34:53.385Z,3.50
2017-11-19T06:35:55.893Z,3.50
2017-11-19T06:36:59.112Z,3.50
2017-11-19T06:38:02.049Z,3.50
2017-11-19T06:39:04.729Z,3.60
2017-11-19T06:40:07.204Z,3.60
2017-11-19T06:41:10.494Z,3.60
2017-11-19T06:42:12.983Z,3.60
2017-11-19T06:43:16.213Z,3.60
2017-11-19T06:44:18.773Z,3.60
2017-11-19T06:45:21.317Z,3.60
2017-11-19T06:46:23.882Z,3.60
2017-11-19T06:47:26.381Z,3.60
2017-11-19T06:48:28.873Z,3.60
2017-11-19T06:49:31.352Z,3.60
2017-11-19T06:50:34.653Z,3.60
2017-11-19T06:51:37.803Z,3.60
2017-11-19T06:52:40.306Z,3.70
2017-11-19T06:53:42.897Z,3.70
2017-11-19T06:54:45.412Z,3.70
2017-11-19T06:55:47.980Z,3.70
2017-11-19T06:56:51.236Z,3.80
2017-11-19T06:57:53.777Z,3.70
2017-11-19T06:58:56.292Z,3.80
2017-11-19T06:59:58.749Z,3.80
2017-11-19T07:01:01.216Z,3.80
2017-11-19T07:02:04.479Z,3.90
2017-11-19T07:03:07.010Z,3.90
2017-11-19T07:04:09.531Z,3.90
2017-11-19T07:05:12.056Z,3.90
2017-11-19T07:06:14.560Z,3.90
2017-11-19T07:07:17.804Z,3.90
2017-11-19T07:08:21.028Z,3.90
2017-11-19T07:09:23.529Z,3.90
2017-11-19T07:10:26.017Z,4.00
2017-11-19T07:11:28.503Z,4.00
2017-11-19T07:12:30.976Z,4.00
2017-11-19T07:13:33.440Z,4.00
2017-11-19T07:14:35.915Z,4.10
2017-11-19T07:15:38.696Z,4.10
2017-11-19T07:16:41.196Z,4.10
2017-11-19T07:17:43.711Z,4.10
2017-11-19T07:18:46.216Z,4.10
2017-11-19T07:19:49.500Z,4.10
2017-11-19T07:20:51.974Z,4.10
2017-11-19T07:21:55.228Z,4.10
2017-11-19T07:22:57.686Z,4.10
2017-11-19T07:24:00.179Z,4.10
2017-11-19T07:25:02.687Z,4.20
2017-11-19T07:26:05.928Z,4.20
2017-11-19T07:27:09.215Z,4.20
2017-11-19T07:28:11.694Z,4.20
2017-11-19T07:29:14.920Z,4.20
2017-11-19T07:30:17.419Z,4.20
2017-11-19T07:31:19.884Z,4.20
2017-11-19T07:32:23.143Z,4.30
2017-11-19T07:33:26.373Z,4.30
2017-11-19T07:34:29.637Z,4.30
2017-11-19T07:35:32.159Z,4.20
2017-11-19T07:36:34.625Z,4.30
2017-11-19T07:37:37.133Z,4.30
2017-11-19T07:38:39.615Z,4.40
2017-11-19T07:39:42.879Z,4.40
2017-11-19T07:40:45.349Z,4.40
2017-11-19T07:41:47.852Z,4.40
2017-11-19T07:42:50.310Z,4.40
2017-11-19T07:43:52.787Z,4.40
2017-11-19T07:44:55.304Z,4.40
2017-11-19T07:45:57.784Z,4.40
2017-11-19T07:47:00.274Z,4.50
2017-11-19T07:48:02.762Z,4.50
2017-11-19T07:49:06.047Z,4.50
2017-11-19T07:50:08.508Z,4.50
2017-11-19T07:51:10.967Z,4.50
2017-11-19T07:52:13.456Z,4.50
2017-11-19T07:53:17.453Z,4.50
2017-11-19T07:54:20.719Z,4.60
2017-11-19T07:55:23.186Z,4.60
2017-11-19T07:56:25.668Z,4.60
2017-11-19T07:57:28.152Z,4.60
2017-11-19T07:58:31.417Z,4.60
2017-11-19T07:59:33.908Z,4.70
2017-11-19T08:00:36.385Z,4.70
2017-11-19T08:01:38.877Z,4.70
2017-11-19T08:02:42.178Z,4.70
2017-11-19T08:03:44.637Z,4.70
2017-11-19T08:04:47.940Z,4.70
2017-11-19T08:05:50.557Z,4.70
2017-11-19T08:06:53.051Z,4.80
2017-11-19T08:07:56.232Z,4.80
2017-11-19T08:08:58.742Z,4.90
2017-11-19T08:10:01.239Z,4.90
2017-11-19T08:11:04.491Z,4.90
2017-11-19T08:12:07.025Z,4.90
2017-11-19T08:13:09.551Z,4.90
2017-11-19T08:14:12.037Z,4.90
2017-11-19T08:15:14.501Z,4.90
2017-11-19T08:16:17.001Z,4.90
2017-11-19T08:17:20.253Z,4.90
2017-11-19T08:18:22.762Z,4.90
2017-11-19T08:19:26.003Z,5.00
2017-11-19T08:20:29.283Z,5.00
2017-11-19T08:21:31.931Z,5.00
2017-11-19T08:22:34.400Z,5.00
2017-11-19T08:23:36.884Z,5.00
2017-11-19T08:24:39.361Z,5.00
2017-11-19T08:25:42.627Z,5.10
2017-11-19T08:26:45.141Z,5.10
2017-11-19T08:27:47.913Z,5.20
2017-11-19T08:28:50.407Z,5.20
2017-11-19T08:29:52.884Z,5.20
2017-11-19T08:30:55.403Z,5.20
2017-11-19T08:31:57.902Z,5.20
2017-11-19T08:33:00.400Z,5.20
2017-11-19T08:34:02.901Z,5.20
2017-11-19T08:35:06.140Z,5.30
2017-11-19T08:36:09.376Z,5.30
2017-11-19T08:37:11.945Z,5.30
2017-11-19T08:38:14.432Z,5.30
2017-11-19T08:39:16.895Z,5.30
2017-11-19T08:40:19.356Z,5.30
2017-11-19T08:41:21.902Z,5.30
2017-11-19T08:42:24.378Z,5.30
2017-11-19T08:43:26.861Z,5.30
2017-11-19T08:44:30.095Z,5.30
2017-11-19T08:45:32.570Z,5.30
2017-11-19T08:46:35.087Z,5.40
2017-11-19T08:47:37.562Z,5.40
2017-11-19T08:48:40.044Z,5.40
2017-11-19T08:49:42.507Z,5.40
2017-11-19T08:50:44.994Z,5.40
2017-11-19T08:51:47.524Z,5.40
2017-11-19T08:52:50.049Z,5.40
2017-11-19T08:53:52.552Z,5.50
2017-11-19T08:54:55.012Z,5.50
2017-11-19T08:55:57.618Z,5.50
2017-11-19T08:57:00.088Z,5.40
2017-11-19T08:58:02.684Z,5.50
2017-11-19T08:59:05.136Z,5.50
2017-11-19T09:00:07.639Z,5.50
2017-11-19T09:01:10.224Z,5.50
2017-11-19T09:02:13.493Z,5.50
2017-11-19T09:03:16.752Z,5.50
2017-11-19T09:04:19.238Z,5.50
2017-11-19T09:05:21.725Z,5.60
2017-11-19T09:06:24.324Z,5.60
2017-11-19T09:07:26.941Z,5.70
2017-11-19T09:08:29.463Z,5.70
2017-11-19T09:09:31.972Z,5.70
2017-11-19T09:10:34.448Z,5.70
2017-11-19T09:11:36.919Z,5.70
2017-11-19T09:12:40.191Z,5.70
2017-11-19T09:13:42.761Z,5.70
2017-11-19T09:14:45.223Z,5.70
2017-11-19T09:15:47.829Z,5.70
2017-11-19T09:16:51.060Z,5.70
2017-11-19T09:17:53.524Z,5.70
2017-11-19T09:18:55.998Z,5.70
2017-11-19T09:19:58.716Z,5.70
2017-11-19T09:21:01.259Z,5.70
2017-11-19T09:22:03.753Z,5.80
2017-11-19T09:23:06.264Z,5.80
2017-11-19T09:24:08.742Z,5.70
2017-11-19T09:25:11.277Z,5.70
2017-11-19T09:26:14.552Z,5.60
2017-11-19T09:27:17.023Z,5.60
2017-11-19T09:28:19.495Z,5.60
2017-11-19T09:29:21.972Z,5.60
2017-11-19T09:30:24.473Z,5.60
2017-11-19T09:31:26.967Z,5.60
2017-11-19T09:32:29.452Z,5.60
2017-11-19T09:33:31.941Z,5.70
2017-11-19T09:34:34.464Z,5.60
2017-11-19T09:35:36.956Z,5.60
2017-11-19T09:36:40.217Z,5.60
2017-11-19T09:37:42.695Z,5.60
2017-11-19T09:38:45.187Z,5.60
2017-11-19T09:39:47.736Z,5.60
2017-11-19T09:40:50.486Z,5.60
2017-11-19T09:41:53.152Z,5.60
2017-11-19T09:42:55.633Z,5.60
2017-11-19T09:43:59.631Z,5.60
2017-11-19T09:45:02.210Z,5.60
2017-11-19T09:46:04.718Z,5.60
2017-11-19T09:47:07.247Z,5.60
2017-11-19T09:48:09.709Z,5.60
2017-11-19T09:49:12.955Z,5.60
2017-11-19T09:50:15.531Z,5.60
2017-11-19T09:51:17.994Z,5.60
2017-11-19T09:52:20.528Z,5.60
2017-11-19T09:53:23.763Z,5.60
2017-11-19T09:54:27.105Z,5.60
2017-11-19T09:55:29.619Z,5.60
2017-11-19T09:56:32.092Z,5.60
2017-11-19T09:57:34.668Z,5.60
2017-11-19T09:58:37.289Z,5.60
2017-11-19T09:59:39.784Z,5.60
2017-11-19T10:00:42.342Z,5.60
2017-11-19T10:01:44.830Z,5.60
2017-11-19T10:02:47.304Z,5.60
2017-11-19T10:03:49.823Z,5.60
2017-11-19T10:04:52.355Z,5.60
2017-11-19T10:05:54.799Z,5.60
2017-11-19T10:06:57.264Z,5.60
2017-11-19T10:07:59.720Z,5.60
2017-11-19T10:09:02.242Z,5.70
2017-11-19T10:10:04.735Z,5.70
2017-11-19T10:11:07.296Z,5.70
2017-11-19T10:12:09.789Z,5.70
2017-11-19T10:13:12.250Z,5.70
2017-11-19T10:14:14.724Z,5.70
2017-11-19T10:15:17.225Z,5.80
2017-11-19T10:16:20.447Z,5.80
2017-11-19T10:17:23.739Z,5.80
2017-11-19T10:18:26.213Z,5.80
2017-11-19T10:19:28.784Z,5.80
2017-11-19T10:20:32.150Z,5.80
2017-11-19T10:21:34.608Z,5.80
2017-11-19T10:22:37.094Z,5.80
2017-11-19T10:23:39.807Z,5.80
2017-11-19T10:24:42.276Z,5.80
2017-11-19T10:25:46.151Z,5.80
2017-11-19T10:26:50.202Z,5.80
2017-11-19T10:27:52.699Z,5.80
2017-11-19T10:28:55.181Z,5.70
2017-11-19T10:29:58.436Z,5.70
2017-11-19T10:31:01.698Z,5.60
2017-11-19T10:32:04.269Z,5.70
2017-11-19T10:33:06.916Z,5.60
2017-11-19T10:34:09.469Z,5.60
2017-11-19T10:35:11.964Z,5.50
2017-11-19T10:36:14.446Z,5.50
2017-11-19T10:37:16.961Z,5.50
2017-11-19T10:38:19.588Z,5.60
2017-11-19T10:39:22.128Z,5.60
2017-11-19T10:40:26.379Z,5.50
2017-11-19T10:41:28.867Z,5.60
2017-11-19T10:42:31.354Z,5.60
2017-11-19T10:43:33.856Z,5.50
2017-11-19T10:44:36.346Z,5.50
2017-11-19T10:45:39.603Z,5.60
2017-11-19T10:46:42.859Z,5.60
2017-11-19T10:47:45.353Z,5.60
2017-11-19T10:48:48.634Z,5.60
2017-11-19T10:49:51.201Z,5.60
2017-11-19T10:50:53.693Z,5.60
2017-11-19T10:51:56.305Z,5.70
2017-11-19T10:52:58.801Z,5.70
2017-11-19T10:54:02.151Z,5.70
2017-11-19T10:55:05.437Z,5.60
2017-11-19T10:56:07.965Z,5.60
2017-11-19T10:57:10.808Z,5.60
2017-11-19T10:58:13.270Z,5.60
2017-11-19T10:59:15.796Z,5.60
2017-11-19T11:00:19.101Z,5.60
2017-11-19T11:01:21.565Z,5.60
2017-11-19T11:02:24.115Z,5.60
2017-11-19T11:03:26.623Z,5.60
2017-11-19T11:04:29.926Z,5.60
2017-11-19T11:05:32.488Z,5.60
2017-11-19T11:06:34.980Z,5.70
2017-11-19T11:07:37.453Z,5.70
2017-11-19T11:08:40.675Z,5.70
2017-11-19T11:09:43.580Z,5.70
2017-11-19T11:10:46.067Z,5.70
2017-11-19T11:11:48.528Z,5.80
2017-11-19T11:12:51.118Z,5.70
2017-11-19T11:13:53.616Z,5.70
2017-11-19T11:14:56.900Z,5.70
2017-11-19T11:15:59.372Z,5.70
2017-11-19T11:17:03.343Z,5.70
2017-11-19T11:18:05.808Z,5.70
2017-11-19T11:19:08.333Z,5.70
2017-11-19T11:20:10.857Z,5.70
2017-11-19T11:21:13.322Z,5.70
2017-11-19T11:22:15.798Z,5.70
2017-11-19T11:23:18.841Z,5.70
2017-11-19T11:24:21.321Z,5.70
2017-11-19T11:25:23.802Z,5.70
2017-11-19T11:26:26.797Z,5.70
2017-11-19T11:27:30.080Z,5.70
2017-11-19T11:28:32.588Z,5.70
2017-11-19T11:29:35.064Z,5.60
2017-11-19T11:30:37.533Z,5.60
2017-11-19T11:31:40.048Z,5.60
2017-11-19T11:32:43.276Z,5.60
2017-11-19T11:33:45.792Z,5.60
2017-11-19T11:34:48.377Z,5.60
2017-11-19T11:35:50.834Z,5.60
2017-11-19T11:36:53.336Z,5.60
2017-11-19T11:37:56.256Z,5.70
2017-11-19T11:38:58.764Z,5.70
2017-11-19T11:40:01.297Z,5.70
2017-11-19T11:41:03.764Z,5.70
2017-11-19T11:42:06.255Z,5.70
2017-11-19T11:43:08.744Z,5.70
2017-11-19T11:44:11.256Z,5.80
2017-11-19T11:45:13.737Z,5.90
2017-11-19T11:46:16.210Z,5.90
2017-11-19T11:47:18.707Z,5.90
2017-11-19T11:48:21.168Z,6.00
2017-11-19T11:49:24.438Z,6.10
2017-11-19T11:50:27.696Z,6.10
2017-11-19T11:51:30.222Z,6.10
2017-11-19T11:52:32.689Z,6.10
2017-11-19T11:53:35.186Z,6.10
2017-11-19T11:54:37.636Z,6.10
2017-11-19T11:55:40.142Z,6.10
2017-11-19T11:57:45.117Z,6.10
2017-11-19T11:58:47.596Z,6.10
2017-11-19T11:59:50.084Z,6.10
2017-11-19T12:00:53.319Z,6.20
2017-11-19T12:01:55.806Z,6.20
2017-11-19T12:02:58.300Z,6.20
2017-11-19T12:04:00.776Z,6.20
2017-11-19T12:05:03.243Z,6.20
2017-11-19T12:06:05.737Z,6.20
2017-11-19T12:07:08.207Z,6.20
2017-11-19T12:08:10.771Z,6.20
2017-11-19T12:09:13.242Z,6.20
2017-11-19T12:10:16.514Z,6.10
2017-11-19T12:11:19.014Z,6.10
2017-11-19T12:12:21.483Z,6.10
2017-11-19T12:13:24.012Z,6.20
2017-11-19T12:14:26.476Z,6.10
2017-11-19T12:15:29.724Z,6.20
2017-11-19T12:16:32.954Z,6.10
2017-11-19T12:17:36.191Z,6.10
2017-11-19T12:18:38.751Z,6.10
2017-11-19T12:19:41.226Z,6.10
2017-11-19T12:20:43.688Z,6.00
2017-11-19T12:21:46.190Z,6.00
2017-11-19T12:22:48.657Z,6.00
2017-11-19T12:23:51.115Z,6.00
2017-11-19T12:24:53.599Z,6.00
2017-11-19T12:25:56.096Z,6.00
2017-11-19T12:26:58.559Z,6.00
2017-11-19T12:28:01.058Z,6.00
2017-11-19T12:29:04.318Z,6.00
2017-11-19T12:30:06.805Z,6.00
2017-11-19T12:31:09.372Z,6.00
2017-11-19T12:32:11.838Z,6.00
2017-11-19T12:33:14.315Z,5.90
2017-11-19T12:34:16.792Z,5.90
2017-11-19T12:35:19.288Z,5.90
2017-11-19T12:36:22.379Z,6.00
2017-11-19T12:37:24.864Z,5.90
2017-11-19T12:38:27.367Z,5.90
2017-11-19T12:39:29.825Z,5.90
2017-11-19T12:40:32.282Z,5.80
2017-11-19T12:41:35.498Z,5.80
2017-11-19T12:42:37.988Z,5.80
2017-11-19T12:43:40.493Z,5.80
2017-11-19T12:44:43.056Z,5.80
2017-11-19T12:45:45.517Z,5.70
2017-11-19T12:46:48.792Z,5.70
2017-11-19T12:47:51.309Z,5.70
2017-11-19T12:48:53.771Z,5.70
2017-11-19T12:49:56.237Z,5.70
2017-11-19T12:50:59.472Z,5.70
2017-11-19T12:52:01.936Z,5.70
2017-11-19T12:53:04.425Z,5.70
2017-11-19T12:54:06.915Z,5.70
2017-11-19T12:55:09.422Z,5.70
2017-11-19T12:56:11.897Z,5.80
2017-11-19T12:57:15.228Z,5.80
2017-11-19T12:58:17.773Z,5.80
2017-11-19T12:59:20.236Z,5.80
2017-11-19T13:00:22.749Z,5.80
2017-11-19T13:01:25.285Z,5.90
2017-11-19T13:02:27.756Z,5.80
2017-11-19T13:03:30.237Z,5.80
2017-11-19T13:04:33.538Z,5.80
2017-11-19T13:05:36.824Z,5.80
2017-11-19T13:06:39.386Z,5.80
2017-11-19T13:07:41.873Z,5.80
2017-11-19T13:08:44.445Z,5.80
2017-11-19T13:09:47.022Z,5.80
2017-11-19T13:10:49.561Z,5.80
2017-11-19T13:11:52.043Z,5.80
2017-11-19T13:12:55.303Z,5.80
2017-11-19T13:13:58.720Z,5.80
2017-11-19T13:15:02.726Z,5.90
2017-11-19T13:16:05.235Z,5.90
2017-11-19T13:17:07.788Z,5.90
2017-11-19T13:18:10.274Z,5.90
2017-11-19T13:19:13.542Z,5.90
2017-11-19T13:20:16.047Z,5.90
2017-11-19T13:21:18.574Z,5.90
2017-11-19T13:22:21.809Z,5.90
2017-11-19T13:23:24.310Z,5.90
2017-11-19T13:24:26.801Z,5.90
2017-11-19T13:25:29.317Z,5.90
2017-11-19T13:26:31.885Z,5.90
2017-11-19T13:27:34.495Z,5.90
2017-11-19T13:28:37.011Z,6.00
2017-11-19T13:29:39.577Z,6.00
2017-11-19T13:30:42.155Z,6.00
2017-11-19T13:31:44.638Z,6.00
2017-11-19T13:32:47.388Z,6.00
2017-11-19T13:33:50.073Z,6.10
2017-11-19T13:34:52.569Z,6.10
2017-11-19T13:35:55.041Z,6.10
2017-11-19T13:36:57.507Z,6.10
2017-11-19T13:38:00.065Z,6.10
2017-11-19T13:39:02.577Z,6.20
2017-11-19T13:40:05.054Z,6.20
2017-11-19T13:41:08.298Z,6.20
2017-11-19T13:42:11.544Z,6.20
2017-11-19T13:43:14.843Z,6.20
2017-11-19T13:44:17.315Z,6.20
2017-11-19T13:45:20.596Z,6.20
2017-11-19T13:46:23.125Z,6.20
2017-11-19T13:47:25.598Z,6.20
2017-11-19T13:48:28.174Z,6.20
2017-11-19T13:49:30.677Z,6.20
2017-11-19T13:50:33.168Z,6.20
2017-11-19T13:51:35.650Z,6.10
2017-11-19T13:52:38.144Z,6.10
2017-11-19T13:53:41.392Z,6.10
2017-11-19T13:54:44.654Z,6.10
2017-11-19T13:55:47.145Z,6.00